Time;durP1;ratioP1;P1;durP2;ratioP2;P2;SDS_P1;SDS_P2;PMS_P1;PMS_P2;Temp;Humidity;BMP_temperature;BMP_pressure;BME280_temperature;BME280_humidity;BME280_pressure;Samples;Min_cycle;Max_cycle;Signal;HPM_P1;HPM_P2
2022/11/22 00:02:02;;;;;;;5.82;5.32;;;4.90;99.90;;;;;;5048502;28;20604;-73
2022/11/22 00:04:29;;;;;;;4.97;4.57;;;4.80;99.90;;;;;;5050326;28;20199;-72
2022/11/22 00:06:56;;;;;;;4.80;4.40;;;4.70;99.90;;;;;;5050581;28;20234;-72
2022/11/22 00:09:23;;;;;;;5.38;4.90;;;4.80;99.90;;;;;;5051624;28;20195;-72
2022/11/22 00:11:51;;;;;;;5.07;4.55;;;4.80;99.90;;;;;;5047512;28;20658;-73
2022/11/22 00:14:18;;;;;;;5.78;5.28;;;4.90;99.90;;;;;;5045078;28;20202;-73
2022/11/22 00:16:47;;;;;;;5.07;4.68;;;4.90;99.90;;;;;;5053264;28;20195;-74
2022/11/22 00:19:14;;;;;;;5.45;5.05;;;5.00;99.90;;;;;;5045108;28;20566;-73
2022/11/22 00:21:41;;;;;;;4.70;4.40;;;5.10;99.90;;;;;;5043127;28;20704;-73
2022/11/22 00:24:09;;;;;;;5.05;4.65;;;5.10;99.90;;;;;;5046998;28;20210;-73
2022/11/22 00:26:36;;;;;;;5.80;5.30;;;5.20;99.90;;;;;;5047288;28;20191;-74
2022/11/22 00:29:03;;;;;;;6.28;5.78;;;5.20;99.90;;;;;;5052462;28;20206;-73
2022/11/22 00:31:31;;;;;;;7.13;6.47;;;5.20;99.90;;;;;;5050628;28;20222;-74
2022/11/22 00:33:59;;;;;;;7.05;6.45;;;5.20;99.90;;;;;;5050216;28;20199;-73
2022/11/22 00:36:27;;;;;;;7.07;6.40;;;5.10;99.90;;;;;;5046292;28;20672;-73
2022/11/22 00:38:54;;;;;;;7.40;6.70;;;5.00;99.90;;;;;;5052735;28;20226;-73
2022/11/22 00:41:21;;;;;;;6.47;5.97;;;4.90;99.90;;;;;;5047092;28;20726;-73
2022/11/22 00:43:49;;;;;;;6.50;6.00;;;4.80;99.90;;;;;;5046258;28;20611;-73
2022/11/22 00:46:16;;;;;;;6.78;6.18;;;4.80;99.90;;;;;;5052169;28;20250;-73
2022/11/22 00:48:43;;;;;;;6.65;6.15;;;4.80;99.90;;;;;;5047181;28;20226;-73
2022/11/22 00:51:12;;;;;;;7.35;6.70;;;4.80;99.90;;;;;;5047465;28;20227;-73
2022/11/22 00:53:39;;;;;;;7.20;6.60;;;4.80;99.90;;;;;;5046843;28;20310;-73
2022/11/22 00:56:07;;;;;;;7.15;6.57;;;4.80;99.90;;;;;;5048057;28;20195;-73
2022/11/22 00:58:34;;;;;;;7.13;6.50;;;4.90;99.90;;;;;;5049970;28;20223;-73
2022/11/22 01:01:01;;;;;;;7.40;6.80;;;4.90;99.90;;;;;;5049494;28;20238;-73
2022/11/22 01:03:28;;;;;;;6.72;6.13;;;5.00;99.90;;;;;;5050383;28;20223;-73
2022/11/22 01:05:56;;;;;;;7.97;7.28;;;5.00;99.90;;;;;;5046045;28;20211;-73
2022/11/22 01:08:25;;;;;;;8.85;7.95;;;4.90;99.90;;;;;;5046053;28;20211;-73
2022/11/22 01:10:56;;;;;;;8.38;7.60;;;4.80;99.90;;;;;;5047651;28;20195;-73
2022/11/22 01:13:23;;;;;;;7.22;6.63;;;4.70;99.90;;;;;;5050385;28;20218;-73
2022/11/22 01:15:51;;;;;;;7.05;6.45;;;4.60;99.90;;;;;;5048116;28;20622;-73
2022/11/22 01:18:18;;;;;;;7.07;6.47;;;4.60;99.90;;;;;;5050745;28;20278;-73
2022/11/22 01:20:45;;;;;;;8.13;7.32;;;4.70;99.90;;;;;;5051852;28;20206;-74
2022/11/22 01:23:12;;;;;;;7.38;6.75;;;4.60;99.90;;;;;;5050368;28;20252;-73
2022/11/22 01:25:44;;;;;;;5.97;5.57;;;4.60;99.90;;;;;;5050088;28;20199;-73
2022/11/22 01:28:12;;;;;;;6.20;5.60;;;4.60;99.90;;;;;;5048383;28;20218;-74
2022/11/22 01:30:41;;;;;;;6.30;5.88;;;4.70;99.90;;;;;;5049208;28;20199;-73
2022/11/22 01:33:09;;;;;;;7.47;6.80;;;4.80;99.90;;;;;;5048771;28;20230;-74
2022/11/22 01:35:36;;;;;;;7.32;6.68;;;4.80;99.90;;;;;;5047881;28;20237;-73
2022/11/22 01:38:04;;;;;;;7.07;6.47;;;4.90;99.90;;;;;;5047520;28;20215;-73
2022/11/22 01:40:31;;;;;;;7.53;6.93;;;4.90;99.90;;;;;;5044966;28;20369;-74
2022/11/22 01:43:01;;;;;;;6.95;6.35;;;4.90;99.90;;;;;;5047522;28;20223;-74
2022/11/22 01:45:44;;;;;;;6.72;6.22;;;5.00;99.90;;;;;;5046185;28;20671;-73
2022/11/22 01:48:36;;;;;;;6.15;5.65;;;5.00;99.90;;;;;;5045071;28;20270;-74
2022/11/22 01:51:09;;;;;;;6.95;6.07;;;5.00;99.90;;;;;;5042296;28;20211;-74
2022/11/22 01:53:39;;;;;;;6.93;6.32;;;5.10;99.90;;;;;;5045651;28;20218;-74
2022/11/22 01:56:11;;;;;;;6.70;6.20;;;5.10;99.90;;;;;;5047934;28;20207;-73
2022/11/22 01:58:41;;;;;;;6.63;6.03;;;5.00;99.90;;;;;;5043460;28;20215;-74
2022/11/22 02:01:09;;;;;;;6.25;5.75;;;5.00;99.90;;;;;;5045511;28;20218;-74
2022/11/22 02:03:39;;;;;;;6.88;6.28;;;5.00;99.90;;;;;;5047108;28;20265;-73
2022/11/22 02:06:07;;;;;;;6.40;5.88;;;5.00;99.90;;;;;;5048341;28;20195;-74
2022/11/22 02:08:40;;;;;;;6.38;5.88;;;5.00;99.90;;;;;;5044521;28;20308;-74
2022/11/22 02:11:08;;;;;;;6.57;6.05;;;5.00;99.90;;;;;;5045559;28;20237;-73
2022/11/22 02:13:40;;;;;;;6.50;6.00;;;5.10;99.90;;;;;;5051434;28;20242;-73
2022/11/22 02:16:09;;;;;;;6.97;6.43;;;5.10;99.90;;;;;;5047764;28;20195;-74
2022/11/22 02:18:37;;;;;;;6.43;5.93;;;5.10;99.90;;;;;;5045969;28;20233;-73
2022/11/22 02:21:05;;;;;;;7.18;6.40;;;5.10;99.90;;;;;;5054333;28;20218;-73
2022/11/22 02:23:41;;;;;;;7.65;7.05;;;5.00;99.90;;;;;;5057811;28;20222;-74
2022/11/22 02:26:09;;;;;;;8.10;7.40;;;4.90;99.90;;;;;;5055475;28;20198;-74
2022/11/22 02:28:39;;;;;;;7.13;6.53;;;4.80;99.90;;;;;;5051627;28;20226;-74
2022/11/22 02:31:07;;;;;;;7.93;7.22;;;4.80;99.90;;;;;;5049938;28;20211;-74
2022/11/22 02:33:34;;;;;;;7.53;6.85;;;4.80;99.90;;;;;;5049265;28;20225;-74
2022/11/22 02:36:02;;;;;;;7.30;6.63;;;4.80;99.90;;;;;;5051095;28;20211;-74
2022/11/22 02:38:34;;;;;;;7.10;6.50;;;4.90;99.90;;;;;;5052927;28;20222;-74
2022/11/22 02:41:05;;;;;;;6.45;5.95;;;4.90;99.90;;;;;;5054583;28;20222;-75
2022/11/22 02:43:37;;;;;;;6.28;5.78;;;4.90;99.90;;;;;;5049918;28;20223;-74
2022/11/22 02:46:06;;;;;;;6.50;5.97;;;4.90;99.90;;;;;;5049018;28;20206;-74
2022/11/22 02:48:34;;;;;;;6.00;5.50;;;4.90;99.90;;;;;;5053189;28;20215;-74
2022/11/22 02:51:02;;;;;;;6.40;5.90;;;4.90;99.90;;;;;;5049858;28;20219;-74
2022/11/22 02:53:31;;;;;;;6.97;6.45;;;4.90;99.90;;;;;;5047719;28;20812;-73
2022/11/22 02:55:58;;;;;;;8.07;7.30;;;4.90;99.90;;;;;;5048684;28;20222;-74
2022/11/22 02:58:26;;;;;;;7.53;6.93;;;4.80;99.90;;;;;;5050275;28;20943;-74
2022/11/22 03:00:54;;;;;;;8.00;7.30;;;4.80;99.90;;;;;;5051648;28;20707;-73
2022/11/22 03:03:21;;;;;;;9.15;8.35;;;4.70;99.90;;;;;;5054878;28;20222;-74
2022/11/22 03:05:49;;;;;;;8.45;7.65;;;4.60;99.90;;;;;;5046927;28;20252;-73
2022/11/22 03:08:16;;;;;;;10.60;9.38;;;4.60;99.90;;;;;;5051612;28;20223;-74
2022/11/22 03:10:43;;;;;;;10.70;9.80;;;4.50;99.90;;;;;;5049199;28;20202;-74
2022/11/22 03:13:10;;;;;;;9.25;8.45;;;4.40;99.90;;;;;;5050193;28;20218;-74
2022/11/22 03:15:38;;;;;;;9.85;9.00;;;4.40;99.90;;;;;;5050139;28;20195;-74
2022/11/22 03:18:06;;;;;;;10.35;9.45;;;4.40;99.90;;;;;;5053492;28;20272;-74
2022/11/22 03:20:34;;;;;;;11.05;10.02;;;4.30;99.90;;;;;;5050787;28;20238;-74
2022/11/22 03:23:02;;;;;;;8.75;7.95;;;4.30;99.90;;;;;;5051285;28;20241;-74
2022/11/22 03:25:29;;;;;;;11.40;10.30;;;4.20;99.90;;;;;;5050703;28;20651;-74
2022/11/22 03:27:56;;;;;;;9.55;8.75;;;4.30;99.90;;;;;;5050529;28;20269;-74
2022/11/22 03:30:23;;;;;;;9.18;8.38;;;4.20;99.90;;;;;;5054013;28;20199;-74
2022/11/22 03:32:51;;;;;;;12.13;11.02;;;4.20;99.90;;;;;;5053528;28;20765;-74
2022/11/22 03:35:20;;;;;;;10.90;9.80;;;4.30;99.90;;;;;;5051642;28;20229;-74
2022/11/22 03:37:47;;;;;;;10.45;9.38;;;4.30;99.90;;;;;;5047747;28;20218;-74
2022/11/22 03:40:15;;;;;;;12.57;11.45;;;4.30;99.90;;;;;;5047058;28;20244;-73
2022/11/22 03:42:42;;;;;;;12.00;10.90;;;4.30;99.90;;;;;;5051769;28;20222;-74
2022/11/22 03:45:10;;;;;;;12.30;11.18;;;4.20;99.90;;;;;;5047187;28;20671;-74
2022/11/22 03:47:37;;;;;;;12.68;11.48;;;4.20;99.90;;;;;;5050463;28;20726;-74
2022/11/22 03:50:06;;;;;;;11.70;10.60;;;4.10;99.90;;;;;;5052166;28;20222;-74
2022/11/22 03:52:34;;;;;;;10.85;9.77;;;4.10;99.90;;;;;;5050931;28;20282;-74
2022/11/22 03:55:02;;;;;;;11.35;10.35;;;4.10;99.90;;;;;;5049765;28;20210;-74
2022/11/22 03:57:29;;;;;;;10.18;9.27;;;4.10;99.90;;;;;;5051174;28;20591;-74
2022/11/22 03:59:56;;;;;;;11.20;10.20;;;4.10;99.90;;;;;;5050882;28;20215;-74
2022/11/22 04:02:23;;;;;;;9.23;8.10;;;4.10;99.90;;;;;;5050152;28;20229;-74
2022/11/22 04:04:50;;;;;;;9.50;8.70;;;4.00;99.90;;;;;;5048333;28;20472;-74
2022/11/22 04:07:18;;;;;;;8.95;8.15;;;4.00;99.90;;;;;;5051345;28;20214;-75
2022/11/22 04:09:47;;;;;;;7.45;6.85;;;4.10;99.90;;;;;;5049034;28;20664;-74
2022/11/22 04:12:14;;;;;;;7.50;6.90;;;4.10;99.90;;;;;;5051361;28;20233;-74
2022/11/22 04:17:43;;;;;;;10.00;9.10;;;4.00;99.90;;;;;;5052328;28;20217;-74
2022/11/22 04:22:58;;;;;;;8.15;7.53;;;4.10;99.90;;;;;;5049941;28;20232;-73
2022/11/22 04:25:27;;;;;;;7.88;7.13;;;4.20;99.90;;;;;;5047507;28;20202;-74
2022/11/22 04:27:54;;;;;;;7.65;7.05;;;4.20;99.90;;;;;;5047278;28;20217;-74
2022/11/22 04:32:44;;;;;;;12.10;10.88;;;4.20;99.90;;;;;;5051696;28;20218;-74
2022/11/22 04:33:07;;;;;;;10.23;9.30;;;4.20;99.90;;;;;;5049172;28;20718;-74
2022/11/22 04:35:35;;;;;;;21.65;10.18;;;4.20;99.90;;;;;;5050981;28;20205;-73
2022/11/22 04:38:02;;;;;;;50.50;11.35;;;4.10;99.90;;;;;;5049656;28;20222;-73
2022/11/22 04:40:31;;;;;;;12.57;10.10;;;4.00;99.90;;;;;;5049579;28;20198;-74
2022/11/22 04:45:43;;;;;;;10.75;9.75;;;3.80;99.90;;;;;;5048392;28;20695;-74
2022/11/22 04:48:11;;;;;;;14.52;12.65;;;3.80;99.90;;;;;;5050969;28;20227;-74
2022/11/22 04:53:25;;;;;;;10.98;10.07;;;3.80;99.90;;;;;;5048123;28;20220;-74
2022/11/22 04:55:54;;;;;;;10.80;9.90;;;3.80;99.90;;;;;;5049520;28;20191;-74
2022/11/22 04:58:21;;;;;;;10.25;9.38;;;3.90;99.90;;;;;;5049226;28;20230;-75
2022/11/22 05:00:49;;;;;;;9.68;8.88;;;4.00;99.90;;;;;;5045115;28;20234;-75
2022/11/22 05:03:17;;;;;;;10.00;9.15;;;4.00;99.90;;;;;;5046673;28;20222;-75
2022/11/22 05:05:45;;;;;;;9.65;8.85;;;4.00;99.90;;;;;;5047095;28;20587;-76
2022/11/22 05:08:13;;;;;;;9.57;8.77;;;4.10;99.90;;;;;;5049779;28;21366;-74
2022/11/22 05:10:58;;;;;;;9.30;8.50;;;4.20;99.90;;;;;;5049089;28;20206;-75
2022/11/22 05:13:31;;;;;;;8.00;7.35;;;4.20;99.90;;;;;;5045670;28;20238;-75
2022/11/22 05:15:59;;;;;;;9.02;8.32;;;4.30;99.90;;;;;;5045610;28;20248;-75
2022/11/22 05:18:27;;;;;;;8.52;7.82;;;4.30;99.90;;;;;;5049125;28;20226;-74
2022/11/22 05:20:55;;;;;;;9.23;8.43;;;4.40;99.90;;;;;;5046272;28;20242;-74
2022/11/22 05:26:10;;;;;;;9.90;9.00;;;4.40;99.90;;;;;;5045394;28;20210;-74
2022/11/22 05:28:40;;;;;;;10.77;9.73;;;4.20;99.90;;;;;;5050940;28;20221;-73
2022/11/22 05:31:09;;;;;;;10.07;9.07;;;4.20;99.90;;;;;;5048803;28;20211;-74
2022/11/22 05:33:38;;;;;;;9.25;8.45;;;4.30;99.90;;;;;;5042647;28;20222;-74
2022/11/22 05:36:07;;;;;;;9.65;8.75;;;4.30;99.90;;;;;;5043876;28;20206;-75
2022/11/22 05:38:36;;;;;;;10.25;9.35;;;4.30;99.90;;;;;;5047493;28;20241;-75
2022/11/22 05:41:04;;;;;;;9.75;8.85;;;4.30;99.90;;;;;;5050351;28;20604;-73
2022/11/22 05:43:32;;;;;;;10.32;9.43;;;4.30;99.90;;;;;;5058021;28;20218;-74
2022/11/22 05:46:08;;;;;;;9.27;8.48;;;4.40;99.90;;;;;;5048430;28;20214;-72
2022/11/22 05:48:36;;;;;;;9.68;8.77;;;4.40;99.90;;;;;;5044516;28;20211;-73
2022/11/22 05:51:07;;;;;;;9.68;8.88;;;4.40;99.90;;;;;;5050074;28;20215;-72
2022/11/22 05:53:35;;;;;;;11.65;10.60;;;4.40;99.90;;;;;;5042986;28;20227;-74
2022/11/22 05:56:05;;;;;;;13.13;11.90;;;4.40;99.90;;;;;;5045340;28;20210;-73
2022/11/22 05:58:32;;;;;;;14.38;12.85;;;4.30;99.90;;;;;;5039460;28;20302;-73
2022/11/22 06:01:08;;;;;;;11.20;10.27;;;4.20;99.90;;;;;;5050477;28;20219;-73
2022/11/22 06:03:36;;;;;;;12.00;10.90;;;4.10;99.90;;;;;;5037847;28;20226;-73
2022/11/22 06:06:05;;;;;;;14.15;12.82;;;4.00;99.90;;;;;;5048345;28;20745;-72
2022/11/22 06:08:33;;;;;;;12.00;10.95;;;3.90;99.90;;;;;;5050620;28;20675;-73
2022/11/22 06:11:05;;;;;;;10.50;9.55;;;3.90;99.90;;;;;;5044195;28;20583;-73
2022/11/22 06:13:35;;;;;;;9.90;9.00;;;4.00;99.90;;;;;;5052444;28;20223;-72
2022/11/22 06:16:02;;;;;;;9.73;8.82;;;4.00;99.90;;;;;;5048823;28;20222;-73
2022/11/22 06:18:31;;;;;;;9.20;8.43;;;4.10;99.90;;;;;;5052909;28;20719;-73
2022/11/22 06:20:59;;;;;;;9.27;8.48;;;4.20;99.90;;;;;;5043839;28;20226;-73
2022/11/22 06:23:27;;;;;;;9.30;8.40;;;4.30;99.90;;;;;;5046386;28;20216;-73
2022/11/22 06:25:58;;;;;;;8.73;8.00;;;4.30;99.90;;;;;;5051709;28;20770;-72
2022/11/22 06:28:26;;;;;;;8.00;7.30;;;4.40;99.90;;;;;;5045711;28;20218;-72
2022/11/22 06:30:53;;;;;;;8.50;7.70;;;4.50;99.90;;;;;;5047880;28;20660;-73
2022/11/22 06:33:21;;;;;;;9.00;8.25;;;4.50;99.90;;;;;;5046790;28;20954;-73
2022/11/22 06:35:49;;;;;;;8.57;7.82;;;4.60;99.90;;;;;;5049440;28;20292;-72
2022/11/22 06:38:17;;;;;;;8.65;7.95;;;4.60;99.90;;;;;;5044088;28;20221;-73
2022/11/22 06:40:44;;;;;;;7.85;7.22;;;4.60;99.90;;;;;;5053736;28;20625;-73
2022/11/22 06:43:11;;;;;;;8.57;7.78;;;4.60;99.90;;;;;;5048324;28;20249;-75
2022/11/22 06:45:38;;;;;;;8.07;7.38;;;4.50;99.90;;;;;;5043423;28;20226;-75
2022/11/22 06:48:06;;;;;;;8.98;8.18;;;4.40;99.90;;;;;;5049681;28;20215;-73
2022/11/22 06:50:33;;;;;;;7.90;7.10;;;4.30;99.90;;;;;;5049844;28;20207;-72
2022/11/22 06:53:02;;;;;;;8.65;7.93;;;4.30;99.90;;;;;;5046959;28;20949;-73
2022/11/22 06:55:29;;;;;;;8.18;7.47;;;4.30;99.90;;;;;;5047132;28;20199;-73
2022/11/22 06:57:57;;;;;;;8.25;7.55;;;4.30;99.90;;;;;;5044132;28;20231;-73
2022/11/22 07:00:24;;;;;;;9.43;8.63;;;4.20;99.90;;;;;;5046027;28;20201;-72
2022/11/22 07:02:51;;;;;;;8.68;7.88;;;4.30;99.90;;;;;;5046352;28;20223;-73
2022/11/22 07:05:19;;;;;;;9.18;8.23;;;4.20;99.90;;;;;;5047021;28;20191;-73
2022/11/22 07:07:46;;;;;;;9.23;8.40;;;4.30;99.90;;;;;;5049627;28;20662;-73
2022/11/22 07:10:15;;;;;;;8.32;7.63;;;4.20;99.90;;;;;;5057624;28;20195;-73
2022/11/22 07:12:43;;;;;;;8.30;7.60;;;4.30;99.90;;;;;;5050873;28;20219;-73
2022/11/22 07:15:11;;;;;;;8.90;8.10;;;4.30;99.90;;;;;;5048179;28;20195;-73
2022/11/22 07:17:38;;;;;;;10.07;9.20;;;4.30;99.90;;;;;;5044712;28;20314;-73
2022/11/22 07:20:07;;;;;;;10.48;9.63;;;4.30;99.90;;;;;;5047810;28;20194;-73
2022/11/22 07:22:34;;;;;;;10.57;9.55;;;4.40;99.90;;;;;;5045183;28;20227;-73
2022/11/22 07:25:01;;;;;;;9.45;8.65;;;4.40;99.90;;;;;;5049621;28;20433;-73
2022/11/22 07:27:30;;;;;;;9.38;8.57;;;4.40;99.90;;;;;;5050812;28;20219;-73
2022/11/22 07:29:58;;;;;;;11.13;10.20;;;4.30;99.90;;;;;;5046723;28;20723;-73
2022/11/22 07:32:25;;;;;;;11.32;10.32;;;4.30;99.90;;;;;;5047380;28;20222;-73
2022/11/22 07:34:52;;;;;;;9.68;8.82;;;4.30;99.90;;;;;;5049024;28;20210;-73
2022/11/22 07:37:19;;;;;;;9.70;8.90;;;4.20;99.90;;;;;;5043395;28;20222;-73
2022/11/22 07:39:46;;;;;;;9.52;8.73;;;4.20;99.90;;;;;;5043046;28;20191;-74
2022/11/22 07:42:13;;;;;;;8.57;7.80;;;4.20;99.90;;;;;;5046752;28;20912;-74
2022/11/22 07:44:42;;;;;;;8.07;7.38;;;4.30;99.90;;;;;;5048790;28;20218;-73
2022/11/22 07:47:09;;;;;;;9.13;8.32;;;4.30;99.90;;;;;;5047716;28;20229;-73
2022/11/22 07:49:36;;;;;;;8.95;8.15;;;4.30;99.90;;;;;;5052977;28;20198;-73
2022/11/22 07:52:04;;;;;;;7.28;6.68;;;4.30;99.90;;;;;;5045574;28;20313;-73
2022/11/22 07:54:31;;;;;;;7.50;6.93;;;4.20;99.90;;;;;;5047777;28;20210;-73
2022/11/22 07:56:58;;;;;;;8.32;7.63;;;4.20;99.90;;;;;;5046007;28;20852;-73
2022/11/22 07:59:26;;;;;;;8.35;7.65;;;4.20;99.90;;;;;;5046146;28;20624;-74
2022/11/22 08:01:56;;;;;;;8.43;7.72;;;4.30;99.90;;;;;;5044737;28;20736;-73
2022/11/22 08:04:24;;;;;;;7.97;7.38;;;4.30;99.90;;;;;;5051406;28;20203;-73
2022/11/22 08:06:52;;;;;;;8.77;7.97;;;4.30;99.90;;;;;;5043519;28;20218;-74
2022/11/22 08:09:19;;;;;;;8.02;7.38;;;4.30;99.90;;;;;;5046899;28;20199;-73
2022/11/22 08:11:47;;;;;;;8.55;7.80;;;4.30;99.90;;;;;;5044682;28;20226;-72
2022/11/22 08:14:14;;;;;;;9.02;7.97;;;4.30;99.90;;;;;;5048685;28;20202;-71
2022/11/22 08:16:42;;;;;;;9.15;8.32;;;4.30;99.90;;;;;;5047348;28;20198;-73
2022/11/22 08:19:14;;;;;;;9.82;9.02;;;4.30;99.90;;;;;;5048022;28;20202;-73
2022/11/22 08:21:42;;;;;;;8.27;7.63;;;4.30;99.90;;;;;;5046385;28;20304;-73
2022/11/22 08:24:09;;;;;;;7.35;6.70;;;4.20;99.90;;;;;;5045260;28;20191;-73
2022/11/22 08:26:37;;;;;;;7.78;7.18;;;4.20;99.90;;;;;;5042101;28;20580;-73
2022/11/22 08:29:05;;;;;;;8.57;7.80;;;4.20;99.90;;;;;;5044131;28;20538;-73
2022/11/22 08:31:33;;;;;;;8.15;7.45;;;4.20;99.90;;;;;;5045946;28;20223;-74
2022/11/22 08:34:01;;;;;;;9.25;8.45;;;4.10;99.90;;;;;;5050096;28;20190;-73
2022/11/22 08:36:30;;;;;;;9.52;8.73;;;4.10;99.90;;;;;;5037612;28;20668;-74
2022/11/22 08:38:58;;;;;;;11.55;10.45;;;4.00;99.90;;;;;;5044837;28;20227;-73
2022/11/22 08:41:26;;;;;;;9.43;8.55;;;3.90;99.90;;;;;;5044262;28;20450;-73
2022/11/22 08:43:53;;;;;;;7.82;7.13;;;4.00;99.90;;;;;;5044173;28;20226;-74
2022/11/22 08:46:21;;;;;;;7.28;6.65;;;4.00;99.90;;;;;;5045435;28;20997;-75
2022/11/22 08:48:51;;;;;;;7.20;6.60;;;4.00;99.90;;;;;;5044829;28;20218;-74
2022/11/22 08:51:18;;;;;;;7.57;6.82;;;4.00;99.90;;;;;;5045827;28;20219;-74
2022/11/22 08:53:47;;;;;;;6.90;6.30;;;4.00;99.90;;;;;;5043020;28;21022;-75
2022/11/22 08:56:16;;;;;;;6.55;6.05;;;4.00;99.90;;;;;;5040545;28;20202;-73
2022/11/22 08:58:43;;;;;;;5.97;5.55;;;4.00;99.90;;;;;;5048447;28;20222;-73
2022/11/22 09:01:14;;;;;;;5.38;4.90;;;4.10;99.90;;;;;;5042725;28;20219;-73
2022/11/22 09:03:42;;;;;;;6.32;5.82;;;4.10;99.90;;;;;;5043265;28;20222;-73
2022/11/22 09:06:11;;;;;;;5.68;5.28;;;4.20;99.90;;;;;;5039771;28;20210;-72
2022/11/22 09:08:39;;;;;;;5.80;5.40;;;4.20;99.90;;;;;;5043217;28;20214;-73
2022/11/22 09:11:10;;;;;;;5.78;5.35;;;4.20;99.90;;;;;;5041374;28;20229;-72
2022/11/22 09:13:37;;;;;;;5.80;5.35;;;4.20;99.90;;;;;;5043669;28;20757;-72
2022/11/22 09:16:06;;;;;;;5.68;5.18;;;4.30;99.90;;;;;;5043713;28;20210;-74
2022/11/22 09:18:34;;;;;;;6.13;5.63;;;4.20;99.90;;;;;;5042553;28;20642;-73
2022/11/22 09:21:02;;;;;;;6.07;5.57;;;4.30;99.90;;;;;;5044676;28;20215;-72
2022/11/22 09:23:30;;;;;;;5.78;5.30;;;4.30;99.90;;;;;;5040846;28;20218;-73
2022/11/22 09:25:59;;;;;;;5.78;5.38;;;4.30;99.90;;;;;;5041247;28;20668;-73
2022/11/22 09:28:28;;;;;;;6.75;6.22;;;4.30;99.90;;;;;;5045468;28;20218;-71
2022/11/22 09:31:00;;;;;;;6.10;5.60;;;4.30;99.90;;;;;;5044439;28;20210;-73
2022/11/22 09:33:28;;;;;;;8.13;5.38;;;4.30;99.90;;;;;;5040892;28;20223;-73
2022/11/22 09:36:00;;;;;;;5.97;5.47;;;4.30;99.90;;;;;;5040607;28;20207;-73
2022/11/22 09:38:27;;;;;;;5.43;5.03;;;4.30;99.90;;;;;;5042872;28;20932;-72
2022/11/22 09:40:55;;;;;;;5.45;5.05;;;4.30;99.90;;;;;;5042732;28;20195;-73
2022/11/22 09:43:36;;;;;;;5.00;4.60;;;4.30;99.90;;;;;;5042375;28;20222;-71
2022/11/22 09:46:22;;;;;;;4.47;4.18;;;4.30;99.90;;;;;;5048895;28;20201;-73
2022/11/22 09:49:27;;;;;;;4.75;4.40;;;4.30;99.90;;;;;;5043116;28;20226;-73
2022/11/22 09:52:04;;;;;;;4.72;4.43;;;4.30;99.90;;;;;;5045517;28;20233;-73
2022/11/22 09:54:41;;;;;;;4.72;4.43;;;4.30;99.90;;;;;;5042299;28;20194;-73
2022/11/22 09:57:15;;;;;;;4.35;4.05;;;4.30;99.90;;;;;;5042527;28;20221;-72
2022/11/22 09:59:47;;;;;;;4.90;4.45;;;4.30;99.90;;;;;;5043440;28;20190;-72
2022/11/22 10:02:20;;;;;;;4.82;4.43;;;4.40;99.90;;;;;;5040872;28;20218;-71
2022/11/22 10:04:55;;;;;;;4.43;4.13;;;4.40;99.90;;;;;;5045770;28;20223;-73
2022/11/22 10:07:28;;;;;;;5.05;4.65;;;4.40;99.90;;;;;;5044746;28;20214;-73
2022/11/22 10:10:02;;;;;;;5.25;4.85;;;4.30;99.90;;;;;;5046473;28;20286;-73
2022/11/22 10:12:37;;;;;;;4.95;4.65;;;4.30;99.90;;;;;;5038129;28;20242;-73
2022/11/22 10:15:13;;;;;;;4.90;4.50;;;4.30;99.90;;;;;;5041109;28;20882;-72
2022/11/22 10:17:52;;;;;;;4.85;4.45;;;4.30;99.90;;;;;;5039067;28;20215;-73
2022/11/22 10:20:21;;;;;;;5.18;4.78;;;4.30;99.90;;;;;;5046427;28;20349;-72
2022/11/22 10:22:49;;;;;;;4.60;4.30;;;4.20;99.90;;;;;;5043417;28;20643;-73
2022/11/22 10:25:19;;;;;;;5.65;5.15;;;4.20;99.90;;;;;;5059722;28;20725;-73
2022/11/22 10:27:55;;;;;;;5.07;4.68;;;4.20;99.90;;;;;;5042080;28;20997;-73
2022/11/22 10:30:24;;;;;;;4.05;3.75;;;4.30;99.90;;;;;;5038787;28;20682;-72
2022/11/22 10:33:02;;;;;;;4.60;4.30;;;4.30;99.90;;;;;;5042868;28;20695;-73
2022/11/22 10:35:44;;;;;;;4.43;4.13;;;4.40;99.90;;;;;;5041703;28;20206;-72
2022/11/22 10:38:32;;;;;;;4.13;3.83;;;4.50;99.90;;;;;;5043143;28;20631;-73
2022/11/22 10:41:10;;;;;;;3.92;3.72;;;4.50;99.90;;;;;;5046384;28;20227;-71
2022/11/22 10:43:45;;;;;;;4.25;3.95;;;4.60;99.90;;;;;;5044015;28;20232;-73
2022/11/22 10:46:19;;;;;;;4.82;4.53;;;4.60;99.90;;;;;;5045504;28;20316;-73
2022/11/22 10:48:57;;;;;;;4.88;4.57;;;4.60;99.90;;;;;;5047415;28;20721;-73
2022/11/22 10:51:32;;;;;;;5.30;4.90;;;4.50;99.90;;;;;;5044895;28;20357;-72
2022/11/22 10:54:09;;;;;;;7.22;6.72;;;4.40;99.90;;;;;;5053204;28;20201;-73
2022/11/22 10:56:45;;;;;;;5.50;5.10;;;4.40;99.90;;;;;;5047874;28;20226;-73
2022/11/22 10:59:28;;;;;;;5.03;4.68;;;4.40;99.90;;;;;;5047076;28;20206;-73
2022/11/22 11:02:04;;;;;;;5.47;5.07;;;4.40;99.90;;;;;;5048068;28;20234;-72
2022/11/22 11:04:35;;;;;;;4.88;4.57;;;4.50;99.90;;;;;;5044529;28;20225;-73
2022/11/22 11:07:04;;;;;;;6.00;5.60;;;4.50;99.90;;;;;;5046535;28;20748;-73
2022/11/22 11:09:35;;;;;;;5.55;5.15;;;4.60;99.90;;;;;;5044422;28;20554;-73
2022/11/22 11:12:07;;;;;;;5.38;4.97;;;4.60;99.90;;;;;;5059723;28;20599;-73
2022/11/22 11:14:38;;;;;;;4.82;4.53;;;4.60;99.90;;;;;;5050703;28;20194;-73
2022/11/22 11:17:08;;;;;;;5.10;4.70;;;4.70;99.90;;;;;;5043450;28;20227;-72
2022/11/22 11:19:40;;;;;;;5.60;5.20;;;4.60;99.90;;;;;;5052906;28;20199;-73
2022/11/22 11:22:17;;;;;;;4.68;4.38;;;4.60;99.90;;;;;;5045982;28;20230;-73
2022/11/22 11:24:44;;;;;;;6.43;5.82;;;4.70;99.90;;;;;;5040517;28;20287;-72
2022/11/22 11:27:12;;;;;;;6.60;6.10;;;4.70;99.90;;;;;;5043141;28;20222;-73
2022/11/22 11:29:43;;;;;;;7.45;6.85;;;4.70;99.90;;;;;;5048480;28;20205;-73
2022/11/22 11:32:14;;;;;;;6.72;6.22;;;4.60;99.90;;;;;;5061759;28;20238;-71
2022/11/22 11:34:48;;;;;;;6.80;6.30;;;4.60;99.90;;;;;;5048174;28;20222;-73
2022/11/22 11:37:27;;;;;;;6.95;6.38;;;4.60;99.90;;;;;;5046939;28;20222;-73
2022/11/22 11:39:54;;;;;;;6.90;6.30;;;4.50;99.90;;;;;;5048830;28;20191;-71
2022/11/22 11:42:24;;;;;;;6.43;5.93;;;4.60;99.90;;;;;;5047284;28;20234;-71
2022/11/22 11:44:51;;;;;;;5.50;5.00;;;4.60;99.90;;;;;;5048392;28;20218;-73
2022/11/22 11:47:32;;;;;;;5.63;5.22;;;4.70;99.90;;;;;;5042099;28;20233;-73
2022/11/22 11:50:00;;;;;;;5.28;4.88;;;4.80;99.90;;;;;;5044120;28;20696;-73
2022/11/22 11:52:29;;;;;;;5.57;5.07;;;4.80;99.90;;;;;;5050455;28;20226;-73
2022/11/22 11:54:59;;;;;;;5.75;5.30;;;4.90;99.90;;;;;;5047507;28;20213;-72
2022/11/22 11:57:29;;;;;;;5.50;5.10;;;4.90;99.90;;;;;;5046776;28;20218;-72
2022/11/22 11:59:59;;;;;;;5.70;5.30;;;4.90;99.90;;;;;;5042842;28;20231;-73
2022/11/22 12:02:35;;;;;;;4.80;4.50;;;4.90;99.90;;;;;;5045587;28;20230;-72
2022/11/22 12:05:05;;;;;;;4.40;4.10;;;4.90;99.90;;;;;;5044370;28;20191;-71
2022/11/22 12:07:42;;;;;;;5.00;4.60;;;5.00;99.90;;;;;;5043539;28;20738;-72
2022/11/22 12:10:31;;;;;;;4.55;4.25;;;5.10;99.90;;;;;;5046840;28;20568;-73
2022/11/22 12:13:02;;;;;;;6.10;5.60;;;5.10;99.90;;;;;;5044885;28;20747;-73
2022/11/22 12:15:37;;;;;;;6.25;5.65;;;5.10;99.90;;;;;;5048924;28;20191;-71
2022/11/22 12:18:14;;;;;;;6.03;5.55;;;5.20;99.90;;;;;;5049526;28;20394;-71
2022/11/22 12:20:49;;;;;;;6.97;6.38;;;5.20;99.90;;;;;;5049461;28;20201;-73
2022/11/22 12:23:23;;;;;;;6.68;6.07;;;5.20;99.90;;;;;;5046893;28;20222;-72
2022/11/22 12:25:54;;;;;;;5.57;5.15;;;5.20;99.90;;;;;;5045241;28;20241;-73
2022/11/22 12:28:23;;;;;;;5.60;5.10;;;5.20;99.90;;;;;;5042820;28;20265;-70
2022/11/22 12:30:56;;;;;;;5.45;5.05;;;5.30;99.90;;;;;;5043657;28;20257;-72
2022/11/22 12:33:29;;;;;;;5.15;4.75;;;5.30;99.90;;;;;;5048366;28;20191;-73
2022/11/22 12:35:57;;;;;;;4.65;4.25;;;5.40;99.90;;;;;;5047464;28;20284;-73
2022/11/22 12:38:28;;;;;;;4.68;4.28;;;5.40;99.90;;;;;;5062833;28;20400;-72
2022/11/22 12:40:59;;;;;;;4.30;4.00;;;5.40;99.90;;;;;;5046530;28;20225;-73
2022/11/22 12:43:29;;;;;;;4.57;4.28;;;5.50;99.90;;;;;;5040607;28;20523;-73
2022/11/22 12:46:00;;;;;;;4.00;3.70;;;5.50;99.90;;;;;;5042287;28;20222;-74
2022/11/22 12:48:39;;;;;;;4.53;4.13;;;5.50;99.90;;;;;;5049961;28;20195;-74
2022/11/22 12:51:12;;;;;;;5.10;4.70;;;5.50;99.90;;;;;;5043271;28;20218;-73
2022/11/22 12:53:43;;;;;;;4.13;3.83;;;5.50;99.90;;;;;;5046720;28;20207;-73
2022/11/22 12:56:21;;;;;;;5.18;4.78;;;5.60;99.90;;;;;;5044969;28;20218;-73
2022/11/22 12:58:57;;;;;;;7.00;5.85;;;5.60;99.90;;;;;;5041401;28;20194;-72
2022/11/22 13:01:28;;;;;;;5.43;4.93;;;5.60;99.90;;;;;;5044031;28;20222;-74
2022/11/22 13:04:01;;;;;;;7.38;6.43;;;5.60;99.90;;;;;;5042679;28;20231;-72
2022/11/22 13:06:34;;;;;;;5.18;4.68;;;5.70;99.90;;;;;;5043722;28;20225;-72
2022/11/22 13:09:05;;;;;;;3.95;3.65;;;5.70;99.90;;;;;;5042062;28;20190;-72
2022/11/22 13:11:37;;;;;;;3.65;3.35;;;5.80;99.90;;;;;;5042757;28;20612;-72
2022/11/22 13:14:10;;;;;;;3.60;3.30;;;5.90;99.90;;;;;;5040000;28;20192;-73
2022/11/22 13:16:38;;;;;;;4.03;3.72;;;5.90;99.90;;;;;;5042128;28;20273;-73
2022/11/22 13:19:08;;;;;;;4.28;3.88;;;6.00;99.90;;;;;;5039283;28;20202;-74
2022/11/22 13:21:46;;;;;;;3.28;3.08;;;6.00;99.90;;;;;;5045324;28;20245;-73
2022/11/22 13:24:27;;;;;;;5.38;3.88;;;6.00;99.90;;;;;;5044970;28;20600;-73